< < Back
Terminal Aerodrome Forecast


Current Version              Previous Versions:   1  2  3  4  5  6  7  8  9  

Terminal Aerodrome Forecast

400
FTUS42 KTAE 242000 AAB
TAFVLD
TAF AMD
KVLD 242048Z 2421/2518 30005KT P6SM FEW030
     FM242200 28004KT P6SM SKC=



Latest METAR

545
SAUS70 KWBC 251200 RRD
MTRVLD
METAR KVLD 251153Z 00000KT 9SM CLR 01/00 A3007 RMK AO2 SLP192 T00060000
10028 20000 53004


USA.gov is the U.S. government's official web portal to all federal, state and local government web resources and services.